Lockport, Illinois
Current Conditions -  °F | °C
As of 11:35 PM on Sunday 19 Oct 2014 (Local Time) from KLOT Reporting Station
Scattered Clouds Scattered Clouds  
Wind Chill: 51°   Ceiling: Unl
Heat Index: 51°   Visibility: 10mi
Dew Point: 43°   Wind: 10mph
Humidity: 74%   Direction: 220°SW
Pressure: 29.93"   Gusts: NA
Location:  41.59°N, 88.05°W
Report Text: KLOT 200435Z AUTO 22009KT 10SM SCT070 11/06 A2993 RMK AO2 T01060061
Loading
Personal Weather Stations






























Interactive Weather Map
Tropical Storm Tracking
New forecast layout! Learn more

10-Day Weather Forecast

Advertisements
Track Severe Weather on mobile